Latest Weather Observations for Fowlers Gap

IDN60801

Issued at 8:05 am EDT Saturday 1 November 2014 (issued every 30 minutes, with the page automatically refreshed every 10 minutes)

About weather observations | Map of weather stations | Latest weather observations for NSW | Other Formats
Station Details ID: 046128 Name: FOWLERS GAP AWS Lat: -31.09 Lon: 141.70 Height: 181.0 m
Data from the previous 72 hours. | See also: Recent months at Fowlers Gap
Date/Time
EDT
Temp
°C
App
Temp
°C
Dew
Point
Rel
Hum
%
Delta-T
°C
Wind Press
QNH
hPa
Press
MSL
hPa
Rain
since 9 am
mm
Dir
 
Spd
km/h
Gust
km/h
Spd
kts
Gust
kts
01/08:00am 22.3 18.9 12.5 53 5.6 SW 22 30 12 16 1008.8 1008.3 0.0
01/07:30am 22.0 19.9 12.3 54 5.5 WSW 15 19 8 10 1008.1 1007.5 0.0
01/07:00am 21.6 19.7 11.9 54 5.5 W 13 17 7 9 1007.3 1006.7 0.0
01/06:30am 21.7 20.1 11.4 52 5.8 SW 11 17 6 9 1006.5 1005.9 0.0
01/06:00am 22.2 19.8 11.3 50 6.1 WSW 15 19 8 10 1006.0 1005.4 0.0
01/05:30am 23.0 20.9 11.1 47 6.7 SW 13 20 7 11 1005.1 1004.5 0.0
01/05:00am 23.3 21.2 11.0 46 6.9 SSW 13 17 7 9 1004.8 1004.2 0.0
01/04:30am 23.6 21.5 11.3 46 6.9 S 13 19 7 10 1004.5 1003.9 0.0
01/04:00am 23.8 20.4 11.2 45 7.1 SW 20 30 11 16 1005.2 1004.6 0.0
01/03:30am 24.1 19.7 10.4 42 7.6 SW 24 33 13 18 1005.2 1004.6 0.0
01/03:00am 24.5 19.5 9.6 39 8.2 SW 26 39 14 21 1005.6 1005.0 0.0
01/02:30am 24.9 17.3 9.2 37 8.6 SW 39 50 21 27 1005.6 1005.0 0.0
01/02:01am 25.3 16.9 7.4 32 9.5 SW 41 59 22 32 1005.3 1004.7 0.0
01/02:00am 25.3 16.5 7.4 32 9.6 SW 43 59 23 32 1005.2 1004.6 0.0
01/01:41am 25.4 16.4 7.1 31 9.7 SW 44 63 24 34 1004.5 1003.9 0.0
01/01:30am 25.8 16.3 6.9 30 10.0 SW 46 59 25 32 1004.7 1004.1 0.0
01/01:21am 25.8 16.6 7.9 32 9.6 SW 46 57 25 31 1004.9 1004.3 0.0
01/01:00am 27.6 17.8 6.9 27 11.1 W 48 69 26 37 1004.7 1004.1 0.0
01/12:54am 28.3 19.9 5.8 24 11.8 W 39 69 21 37 1004.3 1003.7 0.0
01/12:50am 27.8 20.6 2.8 20 12.5 W 30 48 16 26 1004.4 1003.8 0.0
01/12:30am 28.9 24.4 2.2 18 13.3 NW 15 19 8 10 1003.3 1002.7 0.0
01/12:00am 29.5 24.1 1.1 16 13.9 NNW 19 24 10 13 1003.2 1002.6 0.0
 
Date/Time
EDT
Temp
°C
App
Temp
°C
Dew
Point
Rel
Hum
%
Delta-T
°C
Wind Press
QNH
hPa
Press
MSL
hPa
Rain
since 9 am
mm
Dir
 
Spd
km/h
Gust
km/h
Spd
kts
Gust
kts
31/11:30pm 29.7 25.0 1.2 16 14.0 NNW 15 20 8 11 1003.5 1002.8 0.0
31/11:00pm 30.5 25.3 0.0 14 14.8 NNW 17 22 9 12 1003.6 1003.0 0.0
31/10:30pm 31.0 25.3 -0.6 13 15.2 NNW 19 22 10 12 1003.6 1003.0 0.0
31/10:00pm 31.2 26.3 -0.5 13 15.3 NNW 15 22 8 12 1003.3 1002.7 0.0
31/09:30pm 31.7 26.7 -1.2 12 15.7 NNW 15 20 8 11 1003.0 1002.4 0.0
31/09:00pm 32.2 27.6 -0.8 12 16.0 NNW 13 17 7 9 1002.8 1002.2 0.0
31/08:30pm 32.7 28.4 -1.6 11 16.4 NW 11 15 6 8 1002.7 1002.1 0.0
31/08:00pm 34.0 28.5 -1.9 10 17.3 WNW 17 24 9 13 1002.7 1002.1 0.0
31/07:30pm 35.1 29.2 -1.1 10 17.7 NW 20 32 11 17 1002.4 1001.8 0.0
31/07:00pm 35.5 29.6 -2.2 9 18.2 NW 19 28 10 15 1002.4 1001.8 0.0
31/06:30pm 35.6 29.1 -2.1 9 18.2 NW 22 41 12 22 1002.6 1002.0 0.0
31/06:00pm 36.7 30.0 -1.3 9 18.8 NNW 24 33 13 18 1002.8 1002.2 0.0
31/05:30pm 36.7 30.4 -1.3 9 18.7 N 22 39 12 21 1002.9 1002.3 0.0
31/05:00pm 36.9 29.8 -1.1 9 18.9 N 26 41 14 22 1003.2 1002.6 0.0
31/04:33pm 36.8 29.3 -1.2 9 18.8 NNW 28 46 15 25 1003.7 1003.1 0.0
31/04:30pm 36.3 28.4 -1.6 9 18.5 NNW 30 46 16 25 1003.7 1003.1 0.0
31/04:00pm 36.2 29.4 -1.7 9 18.6 NNW 24 44 13 24 1004.2 1003.6 0.0
31/03:30pm 36.0 30.0 -1.8 9 18.4 N 20 37 11 20 1004.8 1004.2 0.0
31/03:00pm 35.8 28.6 -2.0 9 18.4 N 26 39 14 21 1005.3 1004.7 0.0
31/02:30pm 36.0 29.6 -1.8 9 18.4 N 22 39 12 21 1005.8 1005.2 0.0
31/02:00pm 34.5 28.7 -1.5 10 17.5 NNW 19 35 10 19 1006.4 1005.8 0.0
31/01:30pm 35.8 29.0 -2.0 9 18.3 N 24 35 13 19 1006.8 1006.2 0.0
31/01:00pm 35.2 29.5 -1.0 10 17.8 N 19 33 10 18 1007.4 1006.8 0.0
31/12:30pm 34.7 28.9 -0.1 11 17.3 NNW 20 24 11 13 1008.0 1007.4 0.0
31/12:00pm 32.4 26.5 -0.6 12 16.0 N 20 26 11 14 1008.3 1007.8 0.0
31/11:30am 32.2 26.5 -0.8 12 15.9 NNE 19 24 10 13 1008.6 1008.1 0.0
31/11:00am 31.1 25.4 -0.5 13 15.2 NNE 19 24 10 13 1008.9 1008.4 0.0
31/10:30am 29.9 24.2 -0.5 14 14.5 NNE 19 26 10 14 1009.4 1008.8 0.0
31/10:00am 27.6 23.2 0.4 17 13.0 NE 13 17 7 9 1009.6 1009.0 0.0
31/09:30am 26.1 21.2 -0.8 17 12.4 ENE 15 19 8 10 1009.8 1009.2 0.0
31/09:00am 25.9 22.1 -1.0 17 12.4 ENE 9 13 5 7 1010.3 1009.7 0.0
31/08:30am 24.1 22.4 1.7 23 10.7 CALM 0 0 0 0 1010.2 1009.6 0.0
31/08:00am 20.9 19.0 0.7 26 9.2 CALM 0 0 0 0 1010.1 1009.5 0.0
31/07:30am 19.6 17.6 -0.4 26 8.8 CALM 0 0 0 0 1010.0 1009.4 0.0
31/07:00am 19.8 17.0 -0.2 26 8.9 NNW 4 6 2 3 1009.7 1009.1 0.0
31/06:30am 19.4 16.1 -1.1 25 8.9 NNW 6 7 3 4 1009.9 1009.3 0.0
31/06:00am 19.2 16.0 -0.7 26 8.7 WSW 6 7 3 4 1009.9 1009.3 0.0
31/05:30am 18.6 16.6 -0.2 28 8.2 CALM 0 0 0 0 1009.5 1008.9 0.0
31/05:00am 18.6 16.4 -1.3 26 8.6 CALM 0 0 0 0 1009.3 1008.7 0.0
31/04:30am 18.5 16.3 -1.3 26 8.5 CALM 0 0 0 0 1009.0 1008.5 0.0
31/04:00am 18.7 16.5 -1.2 26 8.6 CALM 0 0 0 0 1009.3 1008.7 0.0
31/03:30am 18.2 16.0 -1.6 26 8.4 CALM 0 0 0 0 1009.4 1008.8 0.0
31/03:00am 18.5 15.1 -1.9 25 8.7 WNW 6 7 3 4 1009.6 1009.0 0.0
31/02:30am 19.6 16.1 -1.5 24 9.1 SW 7 9 4 5 1010.1 1009.5 0.0
31/02:00am 20.1 16.6 -1.7 23 9.4 WSW 7 9 4 5 1010.4 1009.8 0.0
31/01:30am 20.3 17.4 -0.9 24 9.3 W 4 7 2 4 1010.7 1010.1 0.0
31/01:00am 20.6 18.4 -1.2 23 9.6 CALM 0 0 0 0 1010.8 1010.2 0.0
31/12:30am 20.9 18.6 -2.2 21 9.9 CALM 0 0 0 0 1011.0 1010.4 0.0
31/12:00am 21.8 19.5 -2.1 20 10.4 CALM 0 0 0 0 1011.2 1010.6 0.0
 
Date/Time
EDT
Temp
°C
App
Temp
°C
Dew
Point
Rel
Hum
%
Delta-T
°C
Wind Press
QNH
hPa
Press
MSL
hPa
Rain
since 9 am
mm
Dir
 
Spd
km/h
Gust
km/h
Spd
kts
Gust
kts
30/11:30pm 22.2 19.2 -1.8 20 10.5 W 4 7 2 4 1011.4 1010.8 0.0
30/11:00pm 22.9 19.5 -1.9 19 10.9 NW 6 7 3 4 1011.6 1011.0 0.0
30/10:30pm 23.0 20.8 -1.8 19 10.9 CALM 0 0 0 0 1011.7 1011.1 0.0
30/10:00pm 24.3 22.1 -1.5 18 11.6 CALM 0 0 0 0 1011.8 1011.2 0.0
30/09:30pm 26.2 22.8 -2.4 15 12.8 W 6 7 3 4 1011.8 1011.2 0.0
30/09:00pm 27.6 23.6 -2.3 14 13.6 WNW 9 9 5 5 1011.7 1011.1 0.0
30/08:30pm 29.2 24.7 -3.1 12 14.6 W 11 15 6 8 1011.6 1011.0 0.0
30/08:00pm 30.5 25.6 -3.3 11 15.4 WNW 13 15 7 8 1011.5 1010.9 0.0
30/07:30pm 31.9 27.0 -3.5 10 16.3 WNW 13 17 7 9 1011.3 1010.7 0.0
30/07:00pm 32.3 27.0 -3.2 10 16.5 NW 15 20 8 11 1011.1 1010.5 0.0
30/06:30pm 33.1 28.3 -2.6 10 16.8 WSW 13 19 7 10 1011.0 1010.4 0.0
30/06:00pm 33.3 28.9 -2.4 10 16.9 W 11 15 6 8 1010.8 1010.2 0.0
30/05:30pm 34.0 30.0 -1.9 10 17.2 WSW 9 17 5 9 1010.9 1010.3 0.0
30/05:00pm 33.9 29.6 -2.0 10 17.2 SW 11 20 6 11 1011.0 1010.4 0.0
30/04:30pm 34.7 28.9 -1.4 10 17.5 NW 19 32 10 17 1011.0 1010.4 0.0
30/04:00pm 33.6 29.0 -0.9 11 16.8 NW 13 26 7 14 1011.5 1010.9 0.0
30/03:30pm 33.9 28.6 -0.7 11 16.9 SW 17 26 9 14 1011.8 1011.2 0.0
30/03:00pm 33.9 28.6 -0.7 11 16.9 WNW 17 30 9 16 1012.2 1011.6 0.0
30/02:30pm 33.4 28.4 -1.0 11 16.7 W 15 22 8 12 1012.8 1012.2 0.0
30/02:00pm 33.1 27.3 -0.1 12 16.3 W 20 26 11 14 1013.3 1012.8 0.0
30/01:30pm 32.8 27.5 -0.3 12 16.2 WNW 17 30 9 16 1013.7 1013.2 0.0
30/01:00pm 32.5 27.8 0.6 13 15.8 NW 15 20 8 11 1014.2 1013.7 0.0
30/12:30pm 32.5 29.1 1.6 14 15.5 NW 9 17 5 9 1014.5 1014.0 0.0
30/12:00pm 31.4 27.6 1.7 15 14.8 WNW 11 24 6 13 1015.2 1014.6 0.0
30/11:30am 30.4 26.7 2.6 17 14.0 NNW 11 17 6 9 1015.5 1014.9 0.0
30/11:00am 30.3 26.4 3.4 18 13.7 NNW 13 20 7 11 1015.8 1015.2 0.0
30/10:30am 29.0 24.4 3.8 20 12.9 NNE 17 24 9 13 1015.9 1015.3 0.0
30/10:00am 27.7 23.0 3.4 21 12.2 N 17 22 9 12 1015.9 1015.3 0.0
30/09:30am 27.6 23.4 4.0 22 12.0 NNE 15 20 8 11 1015.9 1015.3 0.0
30/09:00am 26.2 21.0 3.4 23 11.3 NNE 20 28 11 15 1015.7 1015.1 0.0
30/08:30am 23.2 21.9 4.2 29 9.4 CALM 0 6 0 3 1015.6 1015.0 0.0
30/08:00am 18.5 16.8 1.9 33 7.6 CALM 0 0 0 0 1015.5 1014.9 0.0
30/07:30am 15.8 13.9 0.8 36 6.6 CALM 0 0 0 0 1015.3 1014.7 0.0
30/07:00am 15.0 13.1 0.8 38 6.2 CALM 0 0 0 0 1015.2 1014.6 0.0
30/06:30am 15.4 13.1 0.4 36 6.5 NW 2 9 1 5 1014.8 1014.3 0.0
30/06:00am 15.0 13.0 0.1 36 6.4 CALM 0 9 0 5 1014.9 1014.4 0.0
30/05:30am 15.4 13.4 0.0 35 6.6 CALM 0 0 0 0 1014.8 1014.3 0.0
30/05:00am 15.9 14.0 0.5 35 6.7 CALM 0 0 0 0 1014.6 1014.1 0.0
30/04:30am 16.2 13.6 0.7 35 6.8 W 4 7 2 4 1014.5 1014.0 0.0
30/04:00am 17.0 15.1 0.6 33 7.2 CALM 0 2 0 1 1014.5 1014.0 0.0
30/03:30am 17.5 15.7 1.1 33 7.3 CALM 0 0 0 0 1014.1 1013.6 0.0
30/03:00am 17.7 15.8 0.8 32 7.5 CALM 0 0 0 0 1014.8 1014.3 0.0
30/02:30am 18.2 16.3 0.8 31 7.8 CALM 0 0 0 0 1015.1 1014.5 0.0
30/02:00am 18.5 15.5 1.1 31 7.8 S 6 9 3 5 1015.2 1014.6 0.0
30/01:30am 18.7 16.8 0.8 30 8.0 CALM 0 0 0 0 1015.2 1014.6 0.0
30/01:00am 19.3 17.5 1.3 30 8.2 CALM 0 0 0 0 1015.2 1014.6 0.0
30/12:30am 19.0 16.8 1.1 30 8.1 W 2 13 1 7 1015.4 1014.8 0.0
30/12:00am 19.7 17.8 0.7 28 8.6 CALM 0 0 0 0 1015.6 1015.0 0.0
 
Date/Time
EDT
Temp
°C
App
Temp
°C
Dew
Point
Rel
Hum
%
Delta-T
°C
Wind Press
QNH
hPa
Press
MSL
hPa
Rain
since 9 am
mm
Dir
 
Spd
km/h
Gust
km/h
Spd
kts
Gust
kts
29/11:30pm 20.2 18.1 1.6 29 8.6 NNW 2 7 1 4 1015.8 1015.2 0.0
29/11:00pm 21.6 19.7 0.8 25 9.5 CALM 0 0 0 0 1016.1 1015.5 0.0
29/10:30pm 23.1 21.0 1.4 24 10.2 SSW 2 7 1 4 1016.1 1015.5 0.0
29/10:00pm 23.4 19.9 1.1 23 10.4 WSW 9 11 5 6 1016.1 1015.5 0.0
29/09:30pm 24.4 20.5 1.3 22 10.9 WSW 11 11 6 6 1015.7 1015.1 0.0
29/09:00pm 25.6 21.8 1.7 21 11.5 WSW 11 13 6 7 1015.6 1015.0 0.0
29/08:30pm 26.8 22.9 1.3 19 12.3 WSW 11 13 6 7 1015.5 1014.9 0.0
29/08:00pm 28.3 26.3 2.5 19 12.8 SW 2 9 1 5 1015.2 1014.6 0.0
29/07:30pm 29.6 27.7 2.8 18 13.5 S 2 7 1 4 1014.9 1014.4 0.0
29/07:00pm 30.6 27.7 2.8 17 14.1 WSW 7 13 4 7 1014.8 1014.3 0.0
29/06:30pm 31.0 27.4 3.1 17 14.3 W 11 17 6 9 1014.7 1014.2 0.0
29/06:00pm 29.9 27.3 3.0 18 13.6 NNW 6 11 3 6 1014.7 1014.2 0.0
29/05:30pm 30.1 27.3 3.2 18 13.7 ESE 7 11 4 6 1014.7 1014.2 0.0
29/05:00pm 30.2 27.4 3.3 18 13.7 NNW 7 20 4 11 1014.9 1014.4 0.0
29/04:30pm 30.0 27.2 3.1 18 13.7 SSE 7 17 4 9 1015.3 1014.7 0.0
29/04:00pm 29.7 26.2 3.6 19 13.3 SW 11 17 6 9 1015.8 1015.2 0.0
29/03:30pm 29.8 26.9 4.4 20 13.2 ESE 9 15 5 8 1016.2 1015.6 0.0
29/03:00pm 28.9 26.3 4.4 21 12.6 NE 7 11 4 6 1016.6 1016.0 0.0
29/02:30pm 28.6 25.7 4.8 22 12.3 WSW 9 15 5 8 1017.1 1016.5 0.0
29/02:00pm 27.2 24.7 4.9 24 11.5 SSW 7 11 4 6 1017.6 1017.0 0.0
29/01:30pm 27.0 24.2 5.3 25 11.2 SSE 9 13 5 7 1018.2 1017.7 0.0
29/01:00pm 26.4 23.7 5.4 26 10.8 SW 9 13 5 7 1018.7 1018.2 0.0
29/12:30pm 25.2 22.7 4.9 27 10.3 ENE 7 9 4 5 1019.2 1018.7 0.0
29/12:00pm 25.4 22.0 6.1 29 10.0 E 13 24 7 13 1019.6 1019.1 0.0
29/11:30am 24.6 21.4 6.8 32 9.3 ESE 13 20 7 11 1019.9 1019.4 0.0
29/11:00am 23.7 19.7 6.5 33 8.9 ESE 17 26 9 14 1020.2 1019.7 0.0
29/10:30am 22.6 18.5 6.4 35 8.3 E 17 22 9 12 1020.3 1019.8 0.0
29/10:00am 22.2 17.9 6.8 37 7.9 ESE 19 28 10 15 1020.3 1019.8 0.0
29/09:30am 20.5 16.0 6.8 41 7.0 ESE 20 28 11 15 1020.4 1019.9 0.0
29/09:00am 19.3 14.0 6.8 44 6.3 SE 24 32 13 17 1020.4 1019.9 0.0
29/08:30am 18.7 13.3 6.5 45 6.1 SE 24 32 13 17 1020.4 1019.9 0.0

Other Formats:

Comma delimited format used in spreadsheet applications
http://www.bom.gov.au/fwo/IDN60801/IDN60801.94686.axf

JavaScript Object Notation format (JSON) in row-major order
http://www.bom.gov.au/fwo/IDN60801/IDN60801.94686.json